Tenyo Maru — JIFH — position and weather

sailwx.info

Track history (hours):
 
Tides and Currents Weather Stations Pressure Air Temp Water Temp Dewpoint Dewpoint Depression Visibility Wind Speed Wind Dir Waves Ship Positions

Oceanographic research ship Tenyo Maru (Japan)

Detailed information on ship capabilities available from University of Delaware's Ocean Information Center.

Last reported at 2017-Apr-26 01:53 UTC. Time now 2017-Jun-28 07:04 UTC.
Position N 34°37' E 135°01'.
Warning: this ship's position is months out of date.

Length 62.6 m; beam 10.4 m.

Type: Other ship. MMSI: 431030000.

Date/timePositionNaut miles runAvg speedWind from/ knotsBaromVisibWave heightAir tempDewpointWater temp
2017-Apr-26 01:53N 34°37' E 135°01'410.9
2017-Apr-26 01:30N 34°36' E 135°06'612.2
2017-Apr-26 01:00N 34°37' E 135°13'612.0
2017-Apr-26 00:30N 34°37' E 135°21'5 9.2
2017-Apr-26 00:00N 34°39' E 135°26'0 0.5
2017-Apr-25 23:30N 34°39' E 135°26'0 0.0
2017-Apr-25 23:00N 34°39' E 135°26'  
2017-Apr-23 05:17N 34°39' E 135°26'0 0.0
2017-Apr-23 05:00N 34°39' E 135°26'2 4.1
2017-Apr-23 04:30N 34°38' E 135°24'4 8.2
2017-Apr-23 04:01N 34°36' E 135°20'510.1
2017-Apr-23 03:29N 34°32' E 135°15'4 7.8
2017-Apr-23 03:00N 34°30' E 135°12'3 6.8
2017-Apr-23 02:30N 34°27' E 135°09'4 7.0
2017-Apr-23 01:57N 34°25' E 135°05'12 7.8
2017-Apr-23 00:21N 34°13' E 134°59'226 5.2
2017-Apr-21 04:45N 34°58' E 139°28'210.3
2017-Apr-21 04:31N 34°60' E 139°31'611.0
2017-Apr-21 04:01N 35°03' E 139°36'510.8
2017-Apr-21 03:31N 35°05' E 139°42'510.0
2017-Apr-21 03:01N 35°09' E 139°45'611.0
2017-Apr-21 02:29N 35°15' E 139°46'511.2
2017-Apr-21 02:01N 35°20' E 139°43'510.7
2017-Apr-21 01:31N 35°25' E 139°43'4 7.6
2017-Apr-21 01:01N 35°27' E 139°39'0 0.2
2017-Apr-21 00:30N 35°27' E 139°39'0 0.0
2017-Apr-21 00:00N 35°27' E 139°39'0 0.0
2017-Apr-20 23:30N 35°27' E 139°39'0 0.0
2017-Apr-20 23:00N 35°27' E 139°39'0 0.0
2017-Apr-20 22:30N 35°27' E 139°39'0 0.0
2017-Apr-20 22:00N 35°27' E 139°39'0 0.0
2017-Apr-20 21:30N 35°27' E 139°39'0 0.0
2017-Apr-20 21:00N 35°27' E 139°39'0 0.0
2017-Apr-20 20:30N 35°27' E 139°39'0 0.0
2017-Apr-20 20:00N 35°27' E 139°39'0 0.0
2017-Apr-20 19:30N 35°27' E 139°39'0 0.0
2017-Apr-20 19:00N 35°27' E 139°39'0 0.0
2017-Apr-20 18:30N 35°27' E 139°39'0 0.0
2017-Apr-20 18:00N 35°27' E 139°39'0 0.0
2017-Apr-20 17:30N 35°27' E 139°39'0 0.0
2017-Apr-20 17:00N 35°27' E 139°39'0 0.0
2017-Apr-20 16:30N 35°27' E 139°39'0 0.0
2017-Apr-20 16:00N 35°27' E 139°39'0 0.0
2017-Apr-20 15:30N 35°27' E 139°39'0 0.0
2017-Apr-20 15:00N 35°27' E 139°39'0 0.0
2017-Apr-20 14:00N 35°27' E 139°39'0 0.0
2017-Apr-20 13:30N 35°27' E 139°39'0 0.0
2017-Apr-20 13:00N 35°27' E 139°39'0 0.0
2017-Apr-20 12:30N 35°27' E 139°39'0 0.0
2017-Apr-20 12:00N 35°27' E 139°39'0 0.0
2017-Apr-20 11:30N 35°27' E 139°39'0 0.0
2017-Apr-20 11:00N 35°27' E 139°39'0 0.0
2017-Apr-20 10:30N 35°27' E 139°39'0 0.0
2017-Apr-20 10:00N 35°27' E 139°39'0 0.0
2017-Apr-20 09:30N 35°27' E 139°39'0 0.0
2017-Apr-20 09:00N 35°27' E 139°39'0 0.0
2017-Apr-20 08:30N 35°27' E 139°39'0 0.0
2017-Apr-20 08:00N 35°27' E 139°39'0 0.0
2017-Apr-20 07:30N 35°27' E 139°39'0 0.0
2017-Apr-20 07:00N 35°27' E 139°39'0 0.0
2017-Apr-20 06:30N 35°27' E 139°39'0 0.0
2017-Apr-20 06:00N 35°27' E 139°39'0 0.0
2017-Apr-20 05:30N 35°27' E 139°39'0 0.0
2017-Apr-20 05:00N 35°27' E 139°39'0 0.0
2017-Apr-20 04:30N 35°27' E 139°39'0 0.0
2017-Apr-20 04:00N 35°27' E 139°39'0 0.0
2017-Apr-20 03:30N 35°27' E 139°39'0 0.0
2017-Apr-20 03:00N 35°27' E 139°39'0 0.0
2017-Apr-20 02:30N 35°27' E 139°39'0 0.0
2017-Apr-20 02:00N 35°27' E 139°39'0 0.0
2017-Apr-20 01:30N 35°27' E 139°39'0 0.0
2017-Apr-20 01:00N 35°27' E 139°39'0 0.0
2017-Apr-20 00:30N 35°27' E 139°39'0 0.0
2017-Apr-20 00:00N 35°27' E 139°39'0 0.0
2017-Apr-19 23:29N 35°27' E 139°39'0 0.0
2017-Apr-19 23:00N 35°27' E 139°39'0 0.0
2017-Apr-19 22:30N 35°27' E 139°39'0 0.0
2017-Apr-19 22:00N 35°27' E 139°39'0 0.0
2017-Apr-19 21:30N 35°27' E 139°39'0 0.0
2017-Apr-19 21:00N 35°27' E 139°39'0 0.0
2017-Apr-19 20:30N 35°27' E 139°39'0 0.0
2017-Apr-19 20:00N 35°27' E 139°39'0 0.0
2017-Apr-19 19:30N 35°27' E 139°39'0 0.0
2017-Apr-19 19:00N 35°27' E 139°39'0 0.0
2017-Apr-19 18:30N 35°27' E 139°39'0 0.0
2017-Apr-19 17:59N 35°27' E 139°39'0 0.0
2017-Apr-19 17:29N 35°27' E 139°39'0 0.0
2017-Apr-19 16:59N 35°27' E 139°39'0 0.0
2017-Apr-19 16:30N 35°27' E 139°39'0 0.0
2017-Apr-19 16:00N 35°27' E 139°39'0 0.0
2017-Apr-19 15:30N 35°27' E 139°39'0 0.0
2017-Apr-19 15:00N 35°27' E 139°39'0 0.0
2017-Apr-19 14:30N 35°27' E 139°39'0 0.0
2017-Apr-19 13:29N 35°27' E 139°39'0 0.0
2017-Apr-19 12:59N 35°27' E 139°39'0 0.0
2017-Apr-19 12:29N 35°27' E 139°39'0 0.0
2017-Apr-19 11:59N 35°27' E 139°39'0 0.0
2017-Apr-19 11:29N 35°27' E 139°39'0 0.0
2017-Apr-19 10:59N 35°27' E 139°39'0 0.0
2017-Apr-19 10:29N 35°27' E 139°39'0 0.0
2017-Apr-19 09:59N 35°27' E 139°39'0 0.0
2017-Apr-19 09:29N 35°27' E 139°39'0 0.0
2017-Apr-19 09:00N 35°27' E 139°39'0 0.0
2017-Apr-19 08:30N 35°27' E 139°39'0 0.0
2017-Apr-19 07:59N 35°27' E 139°39'0 0.0
2017-Apr-19 07:29N 35°27' E 139°39'0 0.0
2017-Apr-19 06:59N 35°27' E 139°39'0 0.0
2017-Apr-19 06:29N 35°27' E 139°39'0 0.0
2017-Apr-19 05:59N 35°27' E 139°39'0 0.0
2017-Apr-19 05:29N 35°27' E 139°39'0 0.0
2017-Apr-19 04:59N 35°27' E 139°39'0 0.0
2017-Apr-19 04:29N 35°27' E 139°39'0 0.0
2017-Apr-19 03:59N 35°27' E 139°39'0 0.0
2017-Apr-19 03:29N 35°27' E 139°39'0 0.0
2017-Apr-19 03:00N 35°27' E 139°39'0 0.0
2017-Apr-19 02:29N 35°27' E 139°39'0 0.0
2017-Apr-19 01:59N 35°27' E 139°39'0 0.0
2017-Apr-19 01:26N 35°27' E 139°39'0 0.0
2017-Apr-19 00:59N 35°27' E 139°39'0 0.0
2017-Apr-19 00:29N 35°27' E 139°39'0 0.0
2017-Apr-18 23:59N 35°27' E 139°39'0 0.0
2017-Apr-18 23:29N 35°27' E 139°39'0 0.0
2017-Apr-18 22:59N 35°27' E 139°39'0 0.0
2017-Apr-18 22:29N 35°27' E 139°39'0 0.0
2017-Apr-18 21:59N 35°27' E 139°39'0 0.0
2017-Apr-18 21:29N 35°27' E 139°39'0 0.0
2017-Apr-18 20:59N 35°27' E 139°39'0 0.0
2017-Apr-18 20:29N 35°27' E 139°39'0 0.0
2017-Apr-18 19:59N 35°27' E 139°39'0 0.0
2017-Apr-18 19:29N 35°27' E 139°39'0 0.0
2017-Apr-18 18:59N 35°27' E 139°39'0 0.0
2017-Apr-18 18:29N 35°27' E 139°39'0 0.0
2017-Apr-18 17:59N 35°27' E 139°39'0 0.0
2017-Apr-18 17:29N 35°27' E 139°39'0 0.0
2017-Apr-18 16:59N 35°27' E 139°39'0 0.0
2017-Apr-18 16:29N 35°27' E 139°39'0 0.0
2017-Apr-18 15:59N 35°27' E 139°39'0 0.0
2017-Apr-18 15:29N 35°27' E 139°39'0 0.0
2017-Apr-18 14:59N 35°27' E 139°39'0 0.0
2017-Apr-18 14:29N 35°27' E 139°39'0 0.0
2017-Apr-18 13:29N 35°27' E 139°39'0 0.0
2017-Apr-18 12:59N 35°27' E 139°39'0 0.0
2017-Apr-18 12:29N 35°27' E 139°39'0 0.0
2017-Apr-18 11:59N 35°27' E 139°39'0 0.0
2017-Apr-18 11:29N 35°27' E 139°39'0 0.0
2017-Apr-18 10:59N 35°27' E 139°39'0 0.0
2017-Apr-18 10:29N 35°27' E 139°39'0 0.0
2017-Apr-18 09:59N 35°27' E 139°39'0 0.0
2017-Apr-18 09:26N 35°27' E 139°39'0 0.0
2017-Apr-18 08:59N 35°27' E 139°39'0 0.0
2017-Apr-18 08:29N 35°27' E 139°39'0 0.0
2017-Apr-18 07:59N 35°27' E 139°39'0 0.0
2017-Apr-18 07:29N 35°27' E 139°39'0 0.0
2017-Apr-18 06:59N 35°27' E 139°39'0 0.0
2017-Apr-18 06:29N 35°27' E 139°39'0 0.0
2017-Apr-18 05:56N 35°27' E 139°39'0 0.0
2017-Apr-18 05:29N 35°27' E 139°39'0 0.0
2017-Apr-18 04:59N 35°27' E 139°39'0 0.0
2017-Apr-18 04:26N 35°27' E 139°39'0 0.0
2017-Apr-18 03:59N 35°27' E 139°39'0 0.0
2017-Apr-18 03:26N 35°27' E 139°39'0 0.0
2017-Apr-18 02:59N 35°27' E 139°39'0 0.0
2017-Apr-18 02:29N 35°27' E 139°39'0 0.0
2017-Apr-18 01:59N 35°27' E 139°39'0 0.0
2017-Apr-18 01:29N 35°27' E 139°39'0 0.0
2017-Apr-18 00:59N 35°27' E 139°39'0 0.0
2017-Apr-18 00:29N 35°27' E 139°39'0 0.0
2017-Apr-17 23:59N 35°27' E 139°39'0 0.0
2017-Apr-17 23:29N 35°27' E 139°39'0 0.0
2017-Apr-17 22:59N 35°27' E 139°39'0 0.0
2017-Apr-17 22:29N 35°27' E 139°39'0 0.0
2017-Apr-17 21:59N 35°27' E 139°39'0 0.0
2017-Apr-17 21:29N 35°27' E 139°39'0 0.0
2017-Apr-17 20:59N 35°27' E 139°39'0 0.0
2017-Apr-17 20:29N 35°27' E 139°39'0 0.0
2017-Apr-17 19:59N 35°27' E 139°39'0 0.0
2017-Apr-17 19:29N 35°27' E 139°39'0 0.0
2017-Apr-17 18:59N 35°27' E 139°39'0 0.0
2017-Apr-17 18:29N 35°27' E 139°39'0 0.0
2017-Apr-17 17:59N 35°27' E 139°39'0 0.0
2017-Apr-17 17:29N 35°27' E 139°39'0 0.0
2017-Apr-17 16:56N 35°27' E 139°39'0 0.0
2017-Apr-17 16:29N 35°27' E 139°39'0 0.0
2017-Apr-17 15:59N 35°27' E 139°39'0 0.0
2017-Apr-17 15:29N 35°27' E 139°39'0 0.0
2017-Apr-17 14:59N 35°27' E 139°39'0 0.0
2017-Apr-17 13:59N 35°27' E 139°39'0 0.0
2017-Apr-17 13:29N 35°27' E 139°39'0 0.0
2017-Apr-17 12:56N 35°27' E 139°39'0 0.0
2017-Apr-17 12:29N 35°27' E 139°39'0 0.0
2017-Apr-17 11:59N 35°27' E 139°39'0 0.0
2017-Apr-17 11:29N 35°27' E 139°39'0 0.0
2017-Apr-17 10:59N 35°27' E 139°39'0 0.0
2017-Apr-17 10:29N 35°27' E 139°39'0 0.0
2017-Apr-17 09:59N 35°27' E 139°39'0 0.0
2017-Apr-17 09:29N 35°27' E 139°39'0 0.0
2017-Apr-17 08:59N 35°27' E 139°39'0 0.0
2017-Apr-17 08:29N 35°27' E 139°39'0 0.0
2017-Apr-17 07:59N 35°27' E 139°39'0 0.0
2017-Apr-17 07:29N 35°27' E 139°39'0 0.0
2017-Apr-17 06:59N 35°27' E 139°39'0 0.0
2017-Apr-17 06:29N 35°27' E 139°39'0 0.0
2017-Apr-17 05:59N 35°27' E 139°39'0 0.0
2017-Apr-17 05:29N 35°27' E 139°39'0 0.0
2017-Apr-17 04:59N 35°27' E 139°39'0 0.0
2017-Apr-17 04:31N 35°27' E 139°39'1 2.1
2017-Apr-17 04:01N 35°27' E 139°40'4 7.0
2017-Apr-17 03:30N 35°25' E 139°43'5 9.6
2017-Apr-17 03:00N 35°20' E 139°43'510.1
2017-Apr-17 02:30N 35°16' E 139°47'5 9.1
2017-Apr-17 02:00N 35°12' E 139°47'4 8.8
2017-Apr-17 01:30N 35°07' E 139°47'4 8.2
2017-Apr-17 01:00N 35°03' E 139°46'4 2.7
2017-Apr-16 23:40N 35°01' E 139°50'0 0.0
2017-Apr-16 23:22N 35°01' E 139°50'0 0.0
2017-Apr-16 22:52N 35°01' E 139°50'0 0.0
2017-Apr-16 22:16N 35°01' E 139°50'0 0.0
2017-Apr-16 21:58N 35°01' E 139°50'0 0.0
2017-Apr-16 21:22N 35°01' E 139°50'0 0.0
2017-Apr-16 20:46N 35°01' E 139°50'0 0.0
2017-Apr-16 20:28N 35°01' E 139°50'0 0.0
2017-Apr-16 18:28N 35°01' E 139°50'0 0.0
2017-Apr-16 11:46N 35°01' E 139°50'0 0.0
2017-Apr-16 10:22N 35°01' E 139°50'0 0.0
2017-Apr-16 08:46N 35°01' E 139°50'0 0.0
2017-Apr-16 08:22N 35°01' E 139°50'0 0.0
2017-Apr-16 07:52N 35°01' E 139°50'0 0.0
2017-Apr-16 04:22N 35°01' E 139°50'0 0.8
2017-Apr-16 04:00N 35°01' E 139°50'3 5.4
2017-Apr-16 03:30N 35°01' E 139°46'4 7.1
2017-Apr-16 02:56N 34°59' E 139°42'5 8.8
2017-Apr-16 02:24N 34°57' E 139°37'5 9.4
2017-Apr-16 01:55N 34°55' E 139°32'  
Track history (hours):
 
Tides and Currents Weather Stations Pressure Air Temp Water Temp Dewpoint Dewpoint Depression Visibility Wind Speed Wind Dir Waves Ship Positions

Oceanographic research ship Tenyo Maru (Japan)

Detailed information on ship capabilities available from University of Delaware's Ocean Information Center.

Last reported at 2017-Apr-26 01:53 UTC. Time now 2017-Jun-28 07:04 UTC.
Position N 34°37' E 135°01'.
Warning: this ship's position is months out of date.

Length 62.6 m; beam 10.4 m.

Type: Other ship. MMSI: 431030000.

Date/timePositionNaut miles runAvg speedWind from/ knotsBaromVisibWave heightAir tempDewpointWater temp
2017-Apr-26 01:53N 34°37' E 135°01'410.9
2017-Apr-26 01:30N 34°36' E 135°06'612.2
2017-Apr-26 01:00N 34°37' E 135°13'612.0
2017-Apr-26 00:30N 34°37' E 135°21'5 9.2
2017-Apr-26 00:00N 34°39' E 135°26'0 0.5
2017-Apr-25 23:30N 34°39' E 135°26'0 0.0
2017-Apr-25 23:00N 34°39' E 135°26'  
2017-Apr-23 05:17N 34°39' E 135°26'0 0.0
2017-Apr-23 05:00N 34°39' E 135°26'2 4.1
2017-Apr-23 04:30N 34°38' E 135°24'4 8.2
2017-Apr-23 04:01N 34°36' E 135°20'510.1
2017-Apr-23 03:29N 34°32' E 135°15'4 7.8
2017-Apr-23 03:00N 34°30' E 135°12'3 6.8
2017-Apr-23 02:30N 34°27' E 135°09'4 7.0
2017-Apr-23 01:57N 34°25' E 135°05'12 7.8
2017-Apr-23 00:21N 34°13' E 134°59'226 5.2
2017-Apr-21 04:45N 34°58' E 139°28'210.3
2017-Apr-21 04:31N 34°60' E 139°31'611.0
2017-Apr-21 04:01N 35°03' E 139°36'510.8
2017-Apr-21 03:31N 35°05' E 139°42'510.0
2017-Apr-21 03:01N 35°09' E 139°45'611.0
2017-Apr-21 02:29N 35°15' E 139°46'511.2
2017-Apr-21 02:01N 35°20' E 139°43'510.7
2017-Apr-21 01:31N 35°25' E 139°43'4 7.6
2017-Apr-21 01:01N 35°27' E 139°39'0 0.2
2017-Apr-21 00:30N 35°27' E 139°39'0 0.0
2017-Apr-21 00:00N 35°27' E 139°39'0 0.0
2017-Apr-20 23:30N 35°27' E 139°39'0 0.0
2017-Apr-20 23:00N 35°27' E 139°39'0 0.0
2017-Apr-20 22:30N 35°27' E 139°39'0 0.0
2017-Apr-20 22:00N 35°27' E 139°39'0 0.0
2017-Apr-20 21:30N 35°27' E 139°39'0 0.0
2017-Apr-20 21:00N 35°27' E 139°39'0 0.0
2017-Apr-20 20:30N 35°27' E 139°39'0 0.0
2017-Apr-20 20:00N 35°27' E 139°39'0 0.0
2017-Apr-20 19:30N 35°27' E 139°39'0 0.0
2017-Apr-20 19:00N 35°27' E 139°39'0 0.0
2017-Apr-20 18:30N 35°27' E 139°39'0 0.0
2017-Apr-20 18:00N 35°27' E 139°39'0 0.0
2017-Apr-20 17:30N 35°27' E 139°39'0 0.0
2017-Apr-20 17:00N 35°27' E 139°39'0 0.0
2017-Apr-20 16:30N 35°27' E 139°39'0 0.0
2017-Apr-20 16:00N 35°27' E 139°39'0 0.0
2017-Apr-20 15:30N 35°27' E 139°39'0 0.0
2017-Apr-20 15:00N 35°27' E 139°39'0 0.0
2017-Apr-20 14:00N 35°27' E 139°39'0 0.0
2017-Apr-20 13:30N 35°27' E 139°39'0 0.0
2017-Apr-20 13:00N 35°27' E 139°39'0 0.0
2017-Apr-20 12:30N 35°27' E 139°39'0 0.0
2017-Apr-20 12:00N 35°27' E 139°39'0 0.0
2017-Apr-20 11:30N 35°27' E 139°39'0 0.0
2017-Apr-20 11:00N 35°27' E 139°39'0 0.0
2017-Apr-20 10:30N 35°27' E 139°39'0 0.0
2017-Apr-20 10:00N 35°27' E 139°39'0 0.0
2017-Apr-20 09:30N 35°27' E 139°39'0 0.0
2017-Apr-20 09:00N 35°27' E 139°39'0 0.0
2017-Apr-20 08:30N 35°27' E 139°39'0 0.0
2017-Apr-20 08:00N 35°27' E 139°39'0 0.0
2017-Apr-20 07:30N 35°27' E 139°39'0 0.0
2017-Apr-20 07:00N 35°27' E 139°39'0 0.0
2017-Apr-20 06:30N 35°27' E 139°39'0 0.0
2017-Apr-20 06:00N 35°27' E 139°39'0 0.0
2017-Apr-20 05:30N 35°27' E 139°39'0 0.0
2017-Apr-20 05:00N 35°27' E 139°39'0 0.0
2017-Apr-20 04:30N 35°27' E 139°39'0 0.0
2017-Apr-20 04:00N 35°27' E 139°39'0 0.0
2017-Apr-20 03:30N 35°27' E 139°39'0 0.0
2017-Apr-20 03:00N 35°27' E 139°39'0 0.0
2017-Apr-20 02:30N 35°27' E 139°39'0 0.0
2017-Apr-20 02:00N 35°27' E 139°39'0 0.0
2017-Apr-20 01:30N 35°27' E 139°39'0 0.0
2017-Apr-20 01:00N 35°27' E 139°39'0 0.0
2017-Apr-20 00:30N 35°27' E 139°39'0 0.0
2017-Apr-20 00:00N 35°27' E 139°39'0 0.0
2017-Apr-19 23:29N 35°27' E 139°39'0 0.0
2017-Apr-19 23:00N 35°27' E 139°39'0 0.0
2017-Apr-19 22:30N 35°27' E 139°39'0 0.0
2017-Apr-19 22:00N 35°27' E 139°39'0 0.0
2017-Apr-19 21:30N 35°27' E 139°39'0 0.0
2017-Apr-19 21:00N 35°27' E 139°39'0 0.0
2017-Apr-19 20:30N 35°27' E 139°39'0 0.0
2017-Apr-19 20:00N 35°27' E 139°39'0 0.0
2017-Apr-19 19:30N 35°27' E 139°39'0 0.0
2017-Apr-19 19:00N 35°27' E 139°39'0 0.0
2017-Apr-19 18:30N 35°27' E 139°39'0 0.0
2017-Apr-19 17:59N 35°27' E 139°39'0 0.0
2017-Apr-19 17:29N 35°27' E 139°39'0 0.0
2017-Apr-19 16:59N 35°27' E 139°39'0 0.0
2017-Apr-19 16:30N 35°27' E 139°39'0 0.0
2017-Apr-19 16:00N 35°27' E 139°39'0 0.0
2017-Apr-19 15:30N 35°27' E 139°39'0 0.0
2017-Apr-19 15:00N 35°27' E 139°39'0 0.0
2017-Apr-19 14:30N 35°27' E 139°39'0 0.0
2017-Apr-19 13:29N 35°27' E 139°39'0 0.0
2017-Apr-19 12:59N 35°27' E 139°39'0 0.0
2017-Apr-19 12:29N 35°27' E 139°39'0 0.0
2017-Apr-19 11:59N 35°27' E 139°39'0 0.0
2017-Apr-19 11:29N 35°27' E 139°39'0 0.0
2017-Apr-19 10:59N 35°27' E 139°39'0 0.0
2017-Apr-19 10:29N 35°27' E 139°39'0 0.0
2017-Apr-19 09:59N 35°27' E 139°39'0 0.0
2017-Apr-19 09:29N 35°27' E 139°39'0 0.0
2017-Apr-19 09:00N 35°27' E 139°39'0 0.0
2017-Apr-19 08:30N 35°27' E 139°39'0 0.0
2017-Apr-19 07:59N 35°27' E 139°39'0 0.0
2017-Apr-19 07:29N 35°27' E 139°39'0 0.0
2017-Apr-19 06:59N 35°27' E 139°39'0 0.0
2017-Apr-19 06:29N 35°27' E 139°39'0 0.0
2017-Apr-19 05:59N 35°27' E 139°39'0 0.0
2017-Apr-19 05:29N 35°27' E 139°39'0 0.0
2017-Apr-19 04:59N 35°27' E 139°39'0 0.0
2017-Apr-19 04:29N 35°27' E 139°39'0 0.0
2017-Apr-19 03:59N 35°27' E 139°39'0 0.0
2017-Apr-19 03:29N 35°27' E 139°39'0 0.0
2017-Apr-19 03:00N 35°27' E 139°39'0 0.0
2017-Apr-19 02:29N 35°27' E 139°39'0 0.0
2017-Apr-19 01:59N 35°27' E 139°39'0 0.0
2017-Apr-19 01:26N 35°27' E 139°39'0 0.0
2017-Apr-19 00:59N 35°27' E 139°39'0 0.0
2017-Apr-19 00:29N 35°27' E 139°39'0 0.0
2017-Apr-18 23:59N 35°27' E 139°39'0 0.0
2017-Apr-18 23:29N 35°27' E 139°39'0 0.0
2017-Apr-18 22:59N 35°27' E 139°39'0 0.0
2017-Apr-18 22:29N 35°27' E 139°39'0 0.0
2017-Apr-18 21:59N 35°27' E 139°39'0 0.0
2017-Apr-18 21:29N 35°27' E 139°39'0 0.0
2017-Apr-18 20:59N 35°27' E 139°39'0 0.0
2017-Apr-18 20:29N 35°27' E 139°39'0 0.0
2017-Apr-18 19:59N 35°27' E 139°39'0 0.0
2017-Apr-18 19:29N 35°27' E 139°39'0 0.0
2017-Apr-18 18:59N 35°27' E 139°39'0 0.0
2017-Apr-18 18:29N 35°27' E 139°39'0 0.0
2017-Apr-18 17:59N 35°27' E 139°39'0 0.0
2017-Apr-18 17:29N 35°27' E 139°39'0 0.0
2017-Apr-18 16:59N 35°27' E 139°39'0 0.0
2017-Apr-18 16:29N 35°27' E 139°39'0 0.0
2017-Apr-18 15:59N 35°27' E 139°39'0 0.0
2017-Apr-18 15:29N 35°27' E 139°39'0 0.0
2017-Apr-18 14:59N 35°27' E 139°39'0 0.0
2017-Apr-18 14:29N 35°27' E 139°39'0 0.0
2017-Apr-18 13:29N 35°27' E 139°39'0 0.0
2017-Apr-18 12:59N 35°27' E 139°39'0 0.0
2017-Apr-18 12:29N 35°27' E 139°39'0 0.0
2017-Apr-18 11:59N 35°27' E 139°39'0 0.0
2017-Apr-18 11:29N 35°27' E 139°39'0 0.0
2017-Apr-18 10:59N 35°27' E 139°39'0 0.0
2017-Apr-18 10:29N 35°27' E 139°39'0 0.0
2017-Apr-18 09:59N 35°27' E 139°39'0 0.0
2017-Apr-18 09:26N 35°27' E 139°39'0 0.0
2017-Apr-18 08:59N 35°27' E 139°39'0 0.0
2017-Apr-18 08:29N 35°27' E 139°39'0 0.0
2017-Apr-18 07:59N 35°27' E 139°39'0 0.0
2017-Apr-18 07:29N 35°27' E 139°39'0 0.0
2017-Apr-18 06:59N 35°27' E 139°39'0 0.0
2017-Apr-18 06:29N 35°27' E 139°39'0 0.0
2017-Apr-18 05:56N 35°27' E 139°39'0 0.0
2017-Apr-18 05:29N 35°27' E 139°39'0 0.0
2017-Apr-18 04:59N 35°27' E 139°39'0 0.0
2017-Apr-18 04:26N 35°27' E 139°39'0 0.0
2017-Apr-18 03:59N 35°27' E 139°39'0 0.0
2017-Apr-18 03:26N 35°27' E 139°39'0 0.0
2017-Apr-18 02:59N 35°27' E 139°39'0 0.0
2017-Apr-18 02:29N 35°27' E 139°39'0 0.0
2017-Apr-18 01:59N 35°27' E 139°39'0 0.0
2017-Apr-18 01:29N 35°27' E 139°39'0 0.0
2017-Apr-18 00:59N 35°27' E 139°39'0 0.0
2017-Apr-18 00:29N 35°27' E 139°39'0 0.0
2017-Apr-17 23:59N 35°27' E 139°39'0 0.0
2017-Apr-17 23:29N 35°27' E 139°39'0 0.0
2017-Apr-17 22:59N 35°27' E 139°39'0 0.0
2017-Apr-17 22:29N 35°27' E 139°39'0 0.0
2017-Apr-17 21:59N 35°27' E 139°39'0 0.0
2017-Apr-17 21:29N 35°27' E 139°39'0 0.0
2017-Apr-17 20:59N 35°27' E 139°39'0 0.0
2017-Apr-17 20:29N 35°27' E 139°39'0 0.0
2017-Apr-17 19:59N 35°27' E 139°39'0 0.0
2017-Apr-17 19:29N 35°27' E 139°39'0 0.0
2017-Apr-17 18:59N 35°27' E 139°39'0 0.0
2017-Apr-17 18:29N 35°27' E 139°39'0 0.0
2017-Apr-17 17:59N 35°27' E 139°39'0 0.0
2017-Apr-17 17:29N 35°27' E 139°39'0 0.0
2017-Apr-17 16:56N 35°27' E 139°39'0 0.0
2017-Apr-17 16:29N 35°27' E 139°39'0 0.0
2017-Apr-17 15:59N 35°27' E 139°39'0 0.0
2017-Apr-17 15:29N 35°27' E 139°39'0 0.0
2017-Apr-17 14:59N 35°27' E 139°39'0 0.0
2017-Apr-17 13:59N 35°27' E 139°39'0 0.0
2017-Apr-17 13:29N 35°27' E 139°39'0 0.0
2017-Apr-17 12:56N 35°27' E 139°39'0 0.0
2017-Apr-17 12:29N 35°27' E 139°39'0 0.0
2017-Apr-17 11:59N 35°27' E 139°39'0 0.0
2017-Apr-17 11:29N 35°27' E 139°39'0 0.0
2017-Apr-17 10:59N 35°27' E 139°39'0 0.0
2017-Apr-17 10:29N 35°27' E 139°39'0 0.0
2017-Apr-17 09:59N 35°27' E 139°39'0 0.0
2017-Apr-17 09:29N 35°27' E 139°39'0 0.0
2017-Apr-17 08:59N 35°27' E 139°39'0 0.0
2017-Apr-17 08:29N 35°27' E 139°39'0 0.0
2017-Apr-17 07:59N 35°27' E 139°39'0 0.0
2017-Apr-17 07:29N 35°27' E 139°39'0 0.0
2017-Apr-17 06:59N 35°27' E 139°39'0 0.0
2017-Apr-17 06:29N 35°27' E 139°39'0 0.0
2017-Apr-17 05:59N 35°27' E 139°39'0 0.0
2017-Apr-17 05:29N 35°27' E 139°39'0 0.0
2017-Apr-17 04:59N 35°27' E 139°39'0 0.0
2017-Apr-17 04:31N 35°27' E 139°39'1 2.1
2017-Apr-17 04:01N 35°27' E 139°40'4 7.0
2017-Apr-17 03:30N 35°25' E 139°43'5 9.6
2017-Apr-17 03:00N 35°20' E 139°43'510.1
2017-Apr-17 02:30N 35°16' E 139°47'5 9.1
2017-Apr-17 02:00N 35°12' E 139°47'4 8.8
2017-Apr-17 01:30N 35°07' E 139°47'4 8.2
2017-Apr-17 01:00N 35°03' E 139°46'4 2.7
2017-Apr-16 23:40N 35°01' E 139°50'0 0.0
2017-Apr-16 23:22N 35°01' E 139°50'0 0.0
2017-Apr-16 22:52N 35°01' E 139°50'0 0.0
2017-Apr-16 22:16N 35°01' E 139°50'0 0.0
2017-Apr-16 21:58N 35°01' E 139°50'0 0.0
2017-Apr-16 21:22N 35°01' E 139°50'0 0.0
2017-Apr-16 20:46N 35°01' E 139°50'0 0.0
2017-Apr-16 20:28N 35°01' E 139°50'0 0.0
2017-Apr-16 18:28N 35°01' E 139°50'0 0.0
2017-Apr-16 11:46N 35°01' E 139°50'0 0.0
2017-Apr-16 10:22N 35°01' E 139°50'0 0.0
2017-Apr-16 08:46N 35°01' E 139°50'0 0.0
2017-Apr-16 08:22N 35°01' E 139°50'0 0.0
2017-Apr-16 07:52N 35°01' E 139°50'0 0.0
2017-Apr-16 04:22N 35°01' E 139°50'0 0.8
2017-Apr-16 04:00N 35°01' E 139°50'3 5.4
2017-Apr-16 03:30N 35°01' E 139°46'4 7.1
2017-Apr-16 02:56N 34°59' E 139°42'5 8.8
2017-Apr-16 02:24N 34°57' E 139°37'5 9.4
2017-Apr-16 01:55N 34°55' E 139°32'  

Dump ship's entire track history